Flugplatz Nordholz Airport

Bericht für ETMN

vom 23.05. um 18:50 UTC

Wind 5 kt aus 290°

Sichtweite 10 km oder mehr

aufgelockert bewölkt in 25000 ft

Temperatur 15.0°C

Taupunkt 7.0°C

Luftfeuchtigkeit 59%

Luftdruck 1015 hPa

ETMN 231850Z 29005KT 9999 SCT250 15/07 Q1015 BLU+FCST CANCEL

Prognose für ETMN

vom 23.05. um 16:11 UTC

Zwischen 17:00 UTC und 02:00 UTC

Wind 8 kt aus 270°

Sichtweite 10 km oder mehr

keine signifikanten Wettererscheinungen

aufgelockert bewölkt in 5000 ft

aufgelockert bewölkt in 25000 ft

TAF ETMN 231611Z 2317/2402 27008KT 9999 NSW SCT050 SCT250 CANCEL 1850
Impressum